^^
Saratoga-Weather Station Historical Data
Daily Summary for August 10, 2021 Units:  Metric    English   Both
Daily Weekly Monthly Yearly Custom
  High: Low: Average:
Temperature: 23.9 °C 13.1 °C 18.7 °C
Dew Point: 18 °C 11.4 °C 14.6 °C
Humidity: 93% 60% 78%
Wind Speed: 16.3km/h 0km/h 1.5km/h
Wind Gust: 16.1km/h - -
Wind- - WSW
Pressure: 1017.6 hPa 1015.6 hPa -
Precipitation: 0.2 mm    
Historical Graphs
 
 
Tabular Data for August 10, 2021
Time Temperature Dew Point Pressure Wind Wind Speed Wind Gust Humidity Rainfall Rate (Hourly) solar
00:00 14.8 °C 11.9 °C 1017.3 hPa Calm     83% 0.0 mm 0 W/m2
00:05 14.7 °C 12 °C 1017.3 hPa Calm     84% 0.0 mm 0 W/m2
00:10 14.6 °C 11.9 °C 1017.3 hPa Calm     84% 0.0 mm 0 W/m2
00:15 14.6 °C 11.9 °C 1017.3 hPa Calm     84% 0.0 mm 0 W/m2
00:20 14.6 °C 11.7 °C 1017.3 hPa WSW 1.4 km/h 4.8 km/h 83% 0.0 mm 0 W/m2
00:25 14.8 °C 11.6 °C 1017.3 hPa West 3.2 km/h 9.7 km/h 81% 0.0 mm 0 W/m2
00:30 15.3 °C 11.7 °C 1017.3 hPa SW 4.7 km/h 6.4 km/h 79% 0.0 mm 0 W/m2
00:35 15.7 °C 11.7 °C 1017.3 hPa WSW 1.4 km/h 9.7 km/h 77% 0.0 mm 0 W/m2
00:40 16.1 °C 11.7 °C 1017.3 hPa West 3.2 km/h 4.8 km/h 75% 0.0 mm 0 W/m2
00:45 16.4 °C 11.8 °C 1017.3 hPa West 4.7 km/h 6.4 km/h 74% 0.0 mm 0 W/m2
00:50 16.6 °C 11.9 °C 1017.3 hPa Calm   4.8 km/h 74% 0.0 mm 0 W/m2
00:55 16.6 °C 12.1 °C 1017.3 hPa West 1.4 km/h 1.6 km/h 75% 0.0 mm 0 W/m2
01:01 16.4 °C 12.2 °C 1017.3 hPa Calm     76% 0.0 mm 0 W/m2
01:06 16.2 °C 12.2 °C 1017.3 hPa Calm     77% 0.0 mm 0 W/m2
01:11 15.9 °C 12.1 °C 1017.3 hPa Calm     78% 0.0 mm 0 W/m2
01:16 15.7 °C 12.1 °C 1017.3 hPa Calm     79% 0.0 mm 0 W/m2
01:21 15.5 °C 12.1 °C 1017.3 hPa Calm     80% 0.0 mm 0 W/m2
01:26 15.3 °C 11.9 °C 1017.3 hPa Calm     80% 0.0 mm 0 W/m2
01:31 15.1 °C 12 °C 1017.3 hPa Calm     82% 0.0 mm 0 W/m2
01:36 14.9 °C 12 °C 1017.3 hPa Calm     83% 0.0 mm 0 W/m2
01:41 14.7 °C 12 °C 1017.3 hPa Calm     84% 0.0 mm 0 W/m2
01:46 14.6 °C 11.9 °C 1017.3 hPa Calm     84% 0.0 mm 0 W/m2
01:51 14.6 °C 12.1 °C 1017.3 hPa Calm     85% 0.0 mm 0 W/m2
01:56 14.4 °C 11.9 °C 1016.9 hPa Calm     85% 0.0 mm 0 W/m2
02:01 14.4 °C 11.9 °C 1016.9 hPa Calm     85% 0.0 mm 0 W/m2
02:06 14.4 °C 12.1 °C 1016.9 hPa Calm     86% 0.0 mm 0 W/m2
02:11 14.4 °C 12.1 °C 1016.9 hPa Calm     86% 0.0 mm 0 W/m2
02:16 14.4 °C 12.1 °C 1016.9 hPa Calm     86% 0.0 mm 0 W/m2
02:21 14.4 °C 12.1 °C 1016.9 hPa Calm     86% 0.0 mm 0 W/m2
02:26 14.4 °C 12.1 °C 1016.9 hPa Calm     86% 0.0 mm 0 W/m2
02:31 14.4 °C 12.3 °C 1016.9 hPa Calm     87% 0.0 mm 0 W/m2
02:36 14.3 °C 12.2 °C 1016.9 hPa Calm     87% 0.0 mm 0 W/m2
02:41 14.2 °C 12.1 °C 1016.9 hPa Calm     87% 0.0 mm 0 W/m2
02:46 14.2 °C 12.1 °C 1016.9 hPa Calm     87% 0.0 mm 0 W/m2
02:51 14.1 °C 12 °C 1016.9 hPa Calm     87% 0.0 mm 0 W/m2
02:56 14 °C 11.9 °C 1016.9 hPa Calm     87% 0.0 mm 0 W/m2
03:01 13.9 °C 11.8 °C 1016.9 hPa Calm     87% 0.0 mm 0 W/m2
03:06 13.8 °C 11.7 °C 1016.9 hPa Calm     87% 0.0 mm 0 W/m2
03:11 13.8 °C 11.7 °C 1016.9 hPa Calm     87% 0.0 mm 0 W/m2
03:16 13.7 °C 11.6 °C 1016.9 hPa Calm     87% 0.0 mm 0 W/m2
03:21 13.6 °C 11.6 °C 1016.9 hPa Calm     88% 0.0 mm 0 W/m2
03:26 13.6 °C 11.6 °C 1016.9 hPa Calm     88% 0.0 mm 0 W/m2
03:31 13.5 °C 11.6 °C 1016.9 hPa Calm     88% 0.0 mm 0 W/m2
03:36 13.4 °C 11.6 °C 1016.9 hPa Calm     89% 0.0 mm 0 W/m2
03:41 13.3 °C 11.5 °C 1016.9 hPa Calm     89% 0.0 mm 0 W/m2
03:46 13.3 °C 11.5 °C 1016.9 hPa Calm     89% 0.0 mm 0 W/m2
03:51 13.2 °C 11.4 °C 1016.9 hPa Calm     89% 0.0 mm 0 W/m2
03:56 13.2 °C 11.6 °C 1016.9 hPa Calm     90% 0.0 mm 0 W/m2
04:01 13.1 °C 11.5 °C 1016.9 hPa Calm     90% 0.0 mm 0 W/m2
04:06 13.1 °C 11.5 °C 1016.9 hPa Calm     90% 0.0 mm 0 W/m2
04:11 13.1 °C 11.7 °C 1016.9 hPa Calm     91% 0.0 mm 0 W/m2
04:16 13.2 °C 11.8 °C 1016.9 hPa Calm     91% 0.0 mm 0 W/m2
04:22 13.2 °C 11.8 °C 1016.9 hPa Calm     91% 0.0 mm 0 W/m2
04:27 13.3 °C 11.9 °C 1016.9 hPa Calm     91% 0.0 mm 0 W/m2
04:32 13.3 °C 11.9 °C 1016.9 hPa Calm     91% 0.0 mm 0 W/m2
04:37 13.4 °C 12 °C 1017.3 hPa Calm   4.8 km/h 91% 0.0 mm 0 W/m2
04:42 13.6 °C 12.2 °C 1017.3 hPa NNW 1.4 km/h 4.8 km/h 91% 0.0 mm 0 W/m2
04:47 13.7 °C 12.3 °C 1017.3 hPa Calm   3.2 km/h 91% 0.0 mm 0 W/m2
04:52 13.8 °C 12.2 °C 1017.3 hPa NNW 1.4 km/h 4.8 km/h 90% 0.0 mm 0 W/m2
04:57 14.1 °C 12.1 °C 1016.9 hPa Calm   1.6 km/h 88% 0.0 mm 0 W/m2
05:02 14.4 °C 12.1 °C 1016.9 hPa NNW 1.4 km/h 3.2 km/h 86% 0.0 mm 0 W/m2
05:07 14.8 °C 12.1 °C 1016.9 hPa Calm     84% 0.0 mm 0 W/m2
05:12 15.1 °C 12.4 °C 1017.3 hPa Calm   3.2 km/h 84% 0.0 mm 0 W/m2
05:17 15.1 °C 12.4 °C 1016.9 hPa SW 1.4 km/h 1.6 km/h 84% 0.0 mm 0 W/m2
05:22 15.1 °C 12.4 °C 1017.3 hPa Calm   1.6 km/h 84% 0.0 mm 0 W/m2
05:27 15 °C 12.3 °C 1017.3 hPa Calm   1.6 km/h 84% 0.0 mm 0 W/m2
05:32 14.9 °C 12.2 °C 1017.3 hPa Calm     84% 0.0 mm 0 W/m2
05:37 14.8 °C 12.3 °C 1017.3 hPa Calm   1.6 km/h 85% 0.0 mm 0 W/m2
05:42 14.9 °C 12.2 °C 1016.9 hPa Calm   3.2 km/h 84% 0.0 mm 0 W/m2
05:47 15.1 °C 12.4 °C 1016.9 hPa Calm     84% 0.0 mm 0 W/m2
05:52 15.2 °C 12.3 °C 1016.9 hPa SSE 1.4 km/h 1.6 km/h 83% 0.0 mm 0 W/m2
05:57 15.4 °C 12.3 °C 1016.9 hPa Calm     82% 0.0 mm 0 W/m2
06:02 15.5 °C 12.4 °C 1016.9 hPa Calm   1.6 km/h 82% 0.0 mm 0 W/m2
06:07 15.5 °C 12.3 °C 1016.9 hPa Calm   3.2 km/h 81% 0.0 mm 0 W/m2
06:12 15.6 °C 12.5 °C 1016.6 hPa ESE 1.4 km/h 3.2 km/h 82% 0.0 mm 0 W/m2
06:17 15.6 °C 12.5 °C 1016.6 hPa ESE 1.4 km/h 3.2 km/h 82% 0.0 mm 0 W/m2
06:22 15.6 °C 12.5 °C 1016.9 hPa Calm   4.8 km/h 82% 0.0 mm 0 W/m2
06:27 15.6 °C 12.5 °C 1016.9 hPa South 3.2 km/h 3.2 km/h 82% 0.0 mm 0 W/m2
06:32 15.6 °C 12.5 °C 1017.3 hPa Calm   3.2 km/h 82% 0.0 mm 0 W/m2
06:37 15.6 °C 12.9 °C 1017.3 hPa WNW 1.4 km/h 3.2 km/h 84% 0.0 mm 0 W/m2
06:42 15.6 °C 12.9 °C 1017.3 hPa Calm   1.6 km/h 84% 0.0 mm 0 W/m2
06:47 15.5 °C 13.2 °C 1017.3 hPa Calm   3.2 km/h 86% 0.0 mm 0 W/m2
06:52 15.4 °C 13.2 °C 1017.3 hPa Calm     87% 0.0 mm 5 W/m2
06:57 15.2 °C 13.2 °C 1016.9 hPa Calm     88% 0.0 mm 7 W/m2
07:02 15.2 °C 13.2 °C 1016.9 hPa Calm     88% 0.0 mm 7 W/m2
07:07 15.1 °C 13.3 °C 1017.3 hPa ESE 3.2 km/h 3.2 km/h 89% 0.0 mm 11 W/m2
07:12 14.9 °C 13.1 °C 1016.9 hPa Calm     89% 0.0 mm 21 W/m2
07:17 14.8 °C 13 °C 1016.9 hPa Calm   1.6 km/h 89% 0.0 mm 19 W/m2
07:22 14.8 °C 13.2 °C 1016.9 hPa Calm     90% 0.0 mm 12 W/m2
07:27 14.7 °C 13.1 °C 1016.9 hPa Calm   1.6 km/h 90% 0.2 mm 19 W/m2
07:32 14.7 °C 13.2 °C 1016.9 hPa Calm     91% 0.2 mm 26 W/m2
07:37 14.7 °C 13.2 °C 1017.3 hPa West 3.2 km/h 4.8 km/h 91% 0.2 mm 39 W/m2
07:42 14.7 °C 13.2 °C 1017.3 hPa Calm   3.2 km/h 91% 0.2 mm 39 W/m2
07:47 14.6 °C 13.3 °C 1017.3 hPa NW 1.4 km/h 3.2 km/h 92% 0.2 mm 32 W/m2
07:52 14.6 °C 13.3 °C 1017.3 hPa Calm   3.2 km/h 92% 0.2 mm 32 W/m2
07:57 14.6 °C 13.3 °C 1017.3 hPa Calm   1.6 km/h 92% 0.2 mm 39 W/m2
08:02 14.7 °C 13.4 °C 1017.3 hPa Calm   1.6 km/h 92% 0.2 mm 42 W/m2
08:07 14.7 °C 13.4 °C 1017.3 hPa Calm     92% 0.2 mm 54 W/m2
08:12 14.8 °C 13.7 °C 1017.3 hPa Calm     93% 0.2 mm 56 W/m2
08:17 14.8 °C 13.7 °C 1017.3 hPa Calm     93% 0.2 mm 51 W/m2
08:22 14.9 °C 13.8 °C 1017.3 hPa Calm     93% 0.2 mm 54 W/m2
08:28 14.9 °C 13.8 °C 1017.3 hPa Calm     93% 0.0 mm 58 W/m2
08:33 15 °C 13.9 °C 1017.3 hPa WNW 1.4 km/h 1.6 km/h 93% 0.0 mm 56 W/m2
08:38 15 °C 13.9 °C 1017.3 hPa Calm   3.2 km/h 93% 0.0 mm 63 W/m2
08:43 15.1 °C 14 °C 1017.3 hPa Calm     93% 0.0 mm 81 W/m2
08:48 15.2 °C 13.9 °C 1017.3 hPa Calm   3.2 km/h 92% 0.0 mm 109 W/m2
08:53 15.3 °C 14 °C 1017.3 hPa Calm   1.6 km/h 92% 0.0 mm 197 W/m2
08:58 15.4 °C 14.3 °C 1017.3 hPa Calm   3.2 km/h 93% 0.0 mm 100 W/m2
09:03 15.5 °C 14.2 °C 1017.3 hPa Calm     92% 0.0 mm 163 W/m2
09:08 15.7 °C 14.4 °C 1017.3 hPa Calm     92% 0.0 mm 193 W/m2
09:13 16 °C 14.7 °C 1017.3 hPa NE 1.4 km/h 3.2 km/h 92% 0.0 mm 197 W/m2
09:18 16.3 °C 14.8 °C 1017.3 hPa Calm   4.8 km/h 91% 0.0 mm 186 W/m2
09:23 16.7 °C 15.1 °C 1017.3 hPa ENE 1.4 km/h 4.8 km/h 90% 0.0 mm 146 W/m2
09:28 16.8 °C 14.6 °C 1017.3 hPa Calm     87% 0.0 mm 169 W/m2
09:33 17.1 °C 15.1 °C 1017.3 hPa Calm   3.2 km/h 88% 0.0 mm 193 W/m2
09:38 17.3 °C 15.3 °C 1017.6 hPa Calm     88% 0.0 mm 436 W/m2
09:43 17.5 °C 15.3 °C 1017.3 hPa Calm     87% 0.0 mm 141 W/m2
09:48 17.7 °C 15.1 °C 1017.3 hPa Calm   3.2 km/h 85% 0.0 mm 225 W/m2
09:53 17.9 °C 15.2 °C 1017.3 hPa NNE 1.4 km/h 1.6 km/h 84% 0.0 mm 199 W/m2
09:58 18.2 °C 15.5 °C 1017.3 hPa WNW 1.4 km/h 1.6 km/h 84% 0.0 mm 425 W/m2
10:03 18.4 °C 15.6 °C 1017.3 hPa Calm   1.6 km/h 84% 0.0 mm 508 W/m2
10:08 18.7 °C 15.9 °C 1017.6 hPa WNW 1.4 km/h 3.2 km/h 84% 0.0 mm 503 W/m2
10:13 18.8 °C 15.5 °C 1017.6 hPa WNW 4.7 km/h 4.8 km/h 81% 0.0 mm 515 W/m2
10:18 18.9 °C 15.4 °C 1017.6 hPa WNW 6.4 km/h 8 km/h 80% 0.0 mm 533 W/m2
10:23 19.1 °C 14.8 °C 1017.6 hPa SSW 6.4 km/h 6.4 km/h 76% 0.0 mm 543 W/m2
10:28 19.4 °C 15.9 °C 1017.6 hPa WNW 1.4 km/h 1.6 km/h 80% 0.0 mm 580 W/m2
10:33 19.7 °C 15.3 °C 1017.6 hPa SW 3.2 km/h 3.2 km/h 76% 0.0 mm 624 W/m2
10:38 19.9 °C 15.1 °C 1017.6 hPa WNW 4.7 km/h 8 km/h 74% 0.0 mm 213 W/m2
10:43 20 °C 15.8 °C 1017.6 hPa West 1.4 km/h 3.2 km/h 77% 0.0 mm 612 W/m2
10:48 20.1 °C 15.3 °C 1017.6 hPa Calm   6.4 km/h 74% 0.0 mm 619 W/m2
10:53 20.3 °C 15.3 °C 1017.6 hPa West 4.7 km/h 6.4 km/h 73% 0.0 mm 631 W/m2
10:58 20.3 °C 15.3 °C 1017.6 hPa West 6.4 km/h 11.3 km/h 73% 0.0 mm 292 W/m2
11:03 20.1 °C 15.1 °C 1017.6 hPa WSW 11.1 km/h 12.9 km/h 73% 0.0 mm 353 W/m2
11:08 19.9 °C 14.7 °C 1017.3 hPa WNW 1.4 km/h 6.4 km/h 72% 0.0 mm 380 W/m2
11:13 20 °C 15.2 °C 1017.6 hPa SSE 4.7 km/h 4.8 km/h 74% 0.0 mm 295 W/m2
11:18 20.1 °C 15.1 °C 1017.6 hPa West 3.2 km/h 4.8 km/h 73% 0.0 mm 267 W/m2
11:23 20.2 °C 15.4 °C 1017.6 hPa SW 1.4 km/h 4.8 km/h 74% 0.0 mm 309 W/m2
11:28 20.2 °C 15.2 °C 1017.3 hPa NW 6.4 km/h 8 km/h 73% 0.0 mm 336 W/m2
11:33 20.3 °C 15.3 °C 1017.3 hPa NW 1.4 km/h 3.2 km/h 73% 0.0 mm 301 W/m2
11:38 20.3 °C 15.3 °C 1017.6 hPa Calm   8 km/h 73% 0.0 mm 301 W/m2
11:43 20.3 °C 15.7 °C 1017.6 hPa NE 3.2 km/h 6.4 km/h 75% 0.0 mm 353 W/m2
11:48 20.3 °C 15.3 °C 1017.6 hPa ENE 1.4 km/h 8 km/h 73% 0.0 mm 394 W/m2
11:53 20.3 °C 15.3 °C 1017.6 hPa Calm   4.8 km/h 73% 0.0 mm 330 W/m2
11:58 20.3 °C 15.3 °C 1017.6 hPa WSW 7.9 km/h 8 km/h 73% 0.0 mm 329 W/m2
12:03 20.4 °C 15.6 °C 1017.6 hPa NNW 3.2 km/h 4.8 km/h 74% 0.0 mm 299 W/m2
12:08 20.4 °C 15.6 °C 1017.6 hPa ENE 1.4 km/h 8 km/h 74% 0.0 mm 334 W/m2
12:13 20.5 °C 15.9 °C 1017.6 hPa NE 1.4 km/h 4.8 km/h 75% 0.0 mm 394 W/m2
12:18 20.6 °C 15.8 °C 1017.6 hPa East 4.7 km/h 9.7 km/h 74% 0.0 mm 353 W/m2
12:23 20.6 °C 15.6 °C 1017.6 hPa East 4.7 km/h 9.7 km/h 73% 0.0 mm 367 W/m2
12:28 20.5 °C 15.7 °C 1017.6 hPa WSW 4.7 km/h 6.4 km/h 74% 0.0 mm 513 W/m2
12:33 20.6 °C 15.6 °C 1017.6 hPa WNW 1.4 km/h 9.7 km/h 73% 0.0 mm 471 W/m2
12:38 20.7 °C 15.5 °C 1017.6 hPa NNE 3.2 km/h 9.7 km/h 72% 0.0 mm 350 W/m2
12:43 20.8 °C 15.8 °C 1017.3 hPa NW 7.9 km/h 9.7 km/h 73% 0.0 mm 858 W/m2
12:48 21.1 °C 15.9 °C 1017.3 hPa ESE 6.4 km/h 8 km/h 72% 0.0 mm 914 W/m2
12:53 21.3 °C 15.6 °C 1017.3 hPa WNW 6.4 km/h 16.1 km/h 70% 0.0 mm 1004 W/m2
12:58 21.5 °C 15.8 °C 1017.3 hPa SW 7.9 km/h 16.1 km/h 70% 0.0 mm 1004 W/m2
13:03 21.7 °C 16 °C 1017.3 hPa ENE 1.4 km/h 6.4 km/h 70% 0.0 mm 568 W/m2
13:08 21.8 °C 15.6 °C 1017.3 hPa NNE 1.4 km/h 16.1 km/h 68% 0.0 mm 571 W/m2
13:13 21.7 °C 15.8 °C 1016.9 hPa NW 4.7 km/h 9.7 km/h 69% 0.0 mm 443 W/m2
13:18 21.8 °C 16.3 °C 1016.9 hPa North 3.2 km/h 16.1 km/h 71% 0.0 mm 895 W/m2
13:23 22.1 °C 16.1 °C 1016.9 hPa WNW 4.7 km/h 6.4 km/h 69% 0.0 mm 645 W/m2
13:28 22.2 °C 15.8 °C 1016.9 hPa NW 3.2 km/h 11.3 km/h 67% 0.0 mm 360 W/m2
13:33 21.9 °C 15.7 °C 1016.9 hPa ENE 3.2 km/h 11.3 km/h 68% 0.0 mm 403 W/m2
13:38 21.9 °C 15.7 °C 1016.9 hPa WNW 3.2 km/h 6.4 km/h 68% 0.0 mm 461 W/m2
13:43 22.1 °C 15.7 °C 1016.9 hPa NW 1.4 km/h 6.4 km/h 67% 0.0 mm 387 W/m2
13:48 22.1 °C 15.7 °C 1016.9 hPa Calm   3.2 km/h 67% 0.0 mm 385 W/m2
13:53 22.1 °C 15.7 °C 1016.9 hPa WSW 3.2 km/h 6.4 km/h 67% 0.0 mm 587 W/m2
13:58 22.2 °C 15.8 °C 1016.9 hPa WNW 1.4 km/h 4.8 km/h 67% 0.0 mm 905 W/m2
14:03 22.4 °C 15.7 °C 1016.9 hPa WNW 6.4 km/h 6.4 km/h 66% 0.0 mm 598 W/m2
14:08 22.6 °C 15.4 °C 1016.9 hPa Calm   9.7 km/h 64% 0.0 mm 445 W/m2
14:13 22.8 °C 15.6 °C 1016.9 hPa WSW 6.4 km/h 6.4 km/h 64% 0.0 mm 517 W/m2
14:18 22.8 °C 15.6 °C 1016.9 hPa NW 4.7 km/h 9.7 km/h 64% 0.0 mm 480 W/m2
14:23 22.9 °C 15.2 °C 1016.9 hPa NW 6.4 km/h 9.7 km/h 62% 0.0 mm 1051 W/m2
14:28 23.1 °C 15.9 °C 1016.9 hPa West 16.3 km/h 16.1 km/h 64% 0.0 mm 1035 W/m2
14:33 22.9 °C 15.2 °C 1016.9 hPa ESE 1.4 km/h 4.8 km/h 62% 0.0 mm 406 W/m2
14:38 23 °C 15.3 °C 1016.9 hPa North 4.7 km/h 8 km/h 62% 0.0 mm 352 W/m2
14:43 22.9 °C 15.2 °C 1016.9 hPa West 1.4 km/h 3.2 km/h 62% 0.0 mm 302 W/m2
14:48 22.7 °C 15.3 °C 1016.6 hPa WNW 3.2 km/h 6.4 km/h 63% 0.0 mm 281 W/m2
14:53 22.7 °C 15.5 °C 1016.9 hPa NW 1.4 km/h 3.2 km/h 64% 0.0 mm 345 W/m2
14:58 22.8 °C 15.1 °C 1016.6 hPa West 4.7 km/h 6.4 km/h 62% 0.0 mm 506 W/m2
15:03 22.9 °C 15.5 °C 1016.6 hPa WNW 6.4 km/h 6.4 km/h 63% 0.0 mm 454 W/m2
15:08 22.9 °C 15 °C 1016.6 hPa West 11.1 km/h 11.3 km/h 61% 0.0 mm 427 W/m2
15:13 22.8 °C 15.4 °C 1016.6 hPa WNW 3.2 km/h 14.5 km/h 63% 0.0 mm 429 W/m2
15:18 23.1 °C 15.7 °C 1016.6 hPa WNW 3.2 km/h 6.4 km/h 63% 0.0 mm 990 W/m2
15:23 23.3 °C 15.4 °C 1016.6 hPa NNE 1.4 km/h 14.5 km/h 61% 0.0 mm 330 W/m2
15:28 23.5 °C 15.5 °C 1016.6 hPa WSW 3.2 km/h 4.8 km/h 61% 0.0 mm 257 W/m2
15:33 23.3 °C 15.4 °C 1016.6 hPa WNW 3.2 km/h 6.4 km/h 61% 0.0 mm 241 W/m2
15:38 23.1 °C 15.2 °C 1016.6 hPa West 4.7 km/h 6.4 km/h 61% 0.0 mm 380 W/m2
15:43 23.1 °C 14.9 °C 1016.6 hPa SSW 3.2 km/h 11.3 km/h 60% 0.0 mm 230 W/m2
15:48 23.1 °C 15.4 °C 1016.6 hPa NW 3.2 km/h 3.2 km/h 62% 0.0 mm 204 W/m2
15:53 23.1 °C 15.4 °C 1016.6 hPa WNW 1.4 km/h 4.8 km/h 62% 0.0 mm 246 W/m2
15:58 23.1 °C 15.4 °C 1016.3 hPa NNW 1.4 km/h 4.8 km/h 62% 0.0 mm 338 W/m2
16:03 23.2 °C 15.3 °C 1016.3 hPa Calm   4.8 km/h 61% 0.0 mm 320 W/m2
16:08 23.3 °C 16.3 °C 1016.3 hPa Calm   1.6 km/h 65% 0.0 mm 279 W/m2
16:13 23.3 °C 15.4 °C 1016.3 hPa Calm   6.4 km/h 61% 0.0 mm 214 W/m2
16:18 23.4 °C 16 °C 1016.3 hPa Calm   3.2 km/h 63% 0.0 mm 334 W/m2
16:23 23.6 °C 15.9 °C 1016.3 hPa SW 3.2 km/h 4.8 km/h 62% 0.0 mm 596 W/m2
16:28 23.9 °C 15.7 °C 1016.3 hPa West 6.4 km/h 14.5 km/h 60% 0.0 mm 413 W/m2
16:33 23.9 °C 15.7 °C 1016.3 hPa West 3.2 km/h 9.7 km/h 60% 0.0 mm 534 W/m2
16:38 23.7 °C 15.5 °C 1016.3 hPa NNE 4.7 km/h 12.9 km/h 60% 0.0 mm 267 W/m2
16:43 23.6 °C 15.6 °C 1016.3 hPa West 1.4 km/h 12.9 km/h 61% 0.0 mm 274 W/m2
16:49 23.6 °C 16.1 °C 1016.3 hPa WSW 3.2 km/h 4.8 km/h 63% 0.0 mm 257 W/m2
16:54 23.5 °C 15.5 °C 1016.3 hPa NW 4.7 km/h 12.9 km/h 61% 0.0 mm 271 W/m2
16:59 23.6 °C 15.6 °C 1016.3 hPa West 4.7 km/h 6.4 km/h 61% 0.0 mm 343 W/m2
17:04 23.6 °C 16.1 °C 1016.3 hPa NW 1.4 km/h 3.2 km/h 63% 0.0 mm 420 W/m2
17:09 23.8 °C 16.1 °C 1016.3 hPa SW 3.2 km/h 6.4 km/h 62% 0.0 mm 580 W/m2
17:14 23.8 °C 16.8 °C 1015.9 hPa SE 1.4 km/h 4.8 km/h 65% 0.0 mm 336 W/m2
17:19 23.8 °C 16.6 °C 1015.9 hPa SE 1.4 km/h 3.2 km/h 64% 0.0 mm 232 W/m2
17:24 23.8 °C 16.1 °C 1015.9 hPa SW 3.2 km/h 3.2 km/h 62% 0.0 mm 179 W/m2
17:29 23.7 °C 16.5 °C 1015.9 hPa Calm   1.6 km/h 64% 0.0 mm 174 W/m2
17:34 23.7 °C 16.2 °C 1015.9 hPa WSW 1.4 km/h 3.2 km/h 63% 0.0 mm 183 W/m2
17:39 23.7 °C 16.5 °C 1015.9 hPa Calm   1.6 km/h 64% 0.0 mm 163 W/m2
17:44 23.7 °C 16.5 °C 1015.9 hPa SSW 3.2 km/h 3.2 km/h 64% 0.0 mm 104 W/m2
17:49 23.6 °C 16.6 °C 1015.9 hPa Calm   1.6 km/h 65% 0.0 mm 156 W/m2
17:54 23.6 °C 16.6 °C 1015.9 hPa Calm     65% 0.0 mm 125 W/m2
17:59 23.7 °C 17.2 °C 1015.9 hPa Calm   1.6 km/h 67% 0.0 mm 72 W/m2
18:04 23.6 °C 18 °C 1015.9 hPa Calm     71% 0.0 mm 93 W/m2
18:09 23.5 °C 17.5 °C 1015.9 hPa Calm     69% 0.0 mm 84 W/m2
18:14 23.4 °C 17.8 °C 1015.9 hPa Calm     71% 0.0 mm 146 W/m2
18:19 23.3 °C 17.7 °C 1015.9 hPa Calm   1.6 km/h 71% 0.0 mm 137 W/m2
18:24 23.2 °C 16.7 °C 1015.9 hPa Calm   1.6 km/h 67% 0.0 mm 125 W/m2
18:29 23.2 °C 16.7 °C 1015.6 hPa Calm     67% 0.0 mm 111 W/m2
18:34 23.3 °C 17.5 °C 1015.6 hPa Calm     70% 0.0 mm 141 W/m2
18:39 23.3 °C 17.7 °C 1015.6 hPa Calm     71% 0.0 mm 160 W/m2
18:44 23.3 °C 17.5 °C 1015.9 hPa Calm     70% 0.0 mm 113 W/m2
18:49 23.3 °C 17.7 °C 1015.9 hPa Calm     71% 0.0 mm 95 W/m2
18:54 23.3 °C 16.8 °C 1015.9 hPa West 3.2 km/h 3.2 km/h 67% 0.0 mm 121 W/m2
18:59 23.2 °C 16.7 °C 1015.9 hPa Calm   1.6 km/h 67% 0.0 mm 120 W/m2
19:04 23.2 °C 16 °C 1015.9 hPa WSW 3.2 km/h 6.4 km/h 64% 0.0 mm 121 W/m2
19:09 23.1 °C 16.2 °C 1015.9 hPa NW 4.7 km/h 4.8 km/h 65% 0.0 mm 74 W/m2
19:14 22.9 °C 16.4 °C 1015.9 hPa WNW 3.2 km/h 4.8 km/h 67% 0.0 mm 81 W/m2
19:19 22.8 °C 16.1 °C 1015.9 hPa West 4.7 km/h 4.8 km/h 66% 0.0 mm 72 W/m2
19:24 22.7 °C 16.3 °C 1015.9 hPa Calm   3.2 km/h 67% 0.0 mm 70 W/m2
19:29 22.6 °C 16.6 °C 1015.9 hPa WNW 1.4 km/h 3.2 km/h 69% 0.0 mm 76 W/m2
19:34 22.4 °C 16.2 °C 1015.9 hPa WNW 1.4 km/h 4.8 km/h 68% 0.0 mm 53 W/m2
19:39 22.3 °C 16.3 °C 1015.9 hPa WNW 1.4 km/h 3.2 km/h 69% 0.0 mm 44 W/m2
19:44 22.3 °C 16.6 °C 1015.9 hPa WNW 3.2 km/h 6.4 km/h 70% 0.0 mm 47 W/m2
19:49 22.2 °C 16 °C 1015.9 hPa WNW 1.4 km/h 4.8 km/h 68% 0.0 mm 56 W/m2
19:54 22.1 °C 16.1 °C 1015.9 hPa West 3.2 km/h 4.8 km/h 69% 0.0 mm 47 W/m2
19:59 22.1 °C 16.4 °C 1015.9 hPa Calm   1.6 km/h 70% 0.0 mm 39 W/m2
20:04 21.9 °C 16.2 °C 1015.9 hPa West 1.4 km/h 4.8 km/h 70% 0.0 mm 28 W/m2
20:09 21.8 °C 16.3 °C 1015.9 hPa WSW 4.7 km/h 6.4 km/h 71% 0.0 mm 25 W/m2
20:14 21.7 °C 16 °C 1015.9 hPa West 1.4 km/h 6.4 km/h 70% 0.0 mm 18 W/m2
20:19 21.6 °C 16.1 °C 1015.9 hPa West 3.2 km/h 4.8 km/h 71% 0.0 mm 14 W/m2
20:24 21.4 °C 16.1 °C 1015.9 hPa WNW 3.2 km/h 6.4 km/h 72% 0.0 mm 11 W/m2
20:29 21.3 °C 16 °C 1016.3 hPa West 4.7 km/h 6.4 km/h 72% 0.0 mm 9 W/m2
20:34 21.2 °C 15.9 °C 1016.3 hPa West 1.4 km/h 4.8 km/h 72% 0.0 mm 7 W/m2
20:39 21.1 °C 16.1 °C 1016.3 hPa West 1.4 km/h 6.4 km/h 73% 0.0 mm 5 W/m2
20:44 21 °C 16 °C 1016.3 hPa Calm   4.8 km/h 73% 0.0 mm 5 W/m2
20:49 20.9 °C 15.9 °C 1016.3 hPa West 1.4 km/h 4.8 km/h 73% 0.0 mm 5 W/m2
20:54 20.9 °C 16.1 °C 1016.3 hPa West 3.2 km/h 4.8 km/h 74% 0.0 mm 5 W/m2
20:59 20.8 °C 16 °C 1016.3 hPa WSW 1.4 km/h 4.8 km/h 74% 0.0 mm 0 W/m2
21:04 20.8 °C 16 °C 1016.3 hPa WSW 3.2 km/h 4.8 km/h 74% 0.0 mm 0 W/m2
21:09 20.7 °C 15.9 °C 1016.3 hPa Calm   3.2 km/h 74% 0.0 mm 0 W/m2
21:14 20.7 °C 15.9 °C 1016.3 hPa Calm   4.8 km/h 74% 0.0 mm 0 W/m2
21:19 20.7 °C 15.9 °C 1016.3 hPa WSW 1.4 km/h 3.2 km/h 74% 0.0 mm 0 W/m2
21:24 20.6 °C 16 °C 1016.3 hPa Calm   4.8 km/h 75% 0.0 mm 0 W/m2
21:29 20.6 °C 16 °C 1016.3 hPa SW 1.4 km/h 1.6 km/h 75% 0.0 mm 0 W/m2
21:34 20.6 °C 16 °C 1016.6 hPa Calm   3.2 km/h 75% 0.0 mm 0 W/m2
21:39 20.5 °C 15.9 °C 1016.6 hPa Calm   1.6 km/h 75% 0.0 mm 0 W/m2
21:44 20.4 °C 16 °C 1016.6 hPa Calm     76% 0.0 mm 0 W/m2
21:49 20.3 °C 16.1 °C 1016.6 hPa Calm     77% 0.0 mm 0 W/m2
21:54 20.3 °C 16.3 °C 1016.9 hPa Calm     78% 0.0 mm 0 W/m2
21:59 20.2 °C 16.2 °C 1016.9 hPa Calm     78% 0.0 mm 0 W/m2
22:04 20 °C 16.2 °C 1016.9 hPa Calm     79% 0.0 mm 0 W/m2
22:09 19.8 °C 16.2 °C 1016.9 hPa Calm     80% 0.0 mm 0 W/m2
22:14 19.7 °C 16.2 °C 1016.9 hPa Calm     80% 0.0 mm 0 W/m2
22:19 19.5 °C 16.2 °C 1016.9 hPa Calm     81% 0.0 mm 0 W/m2
22:24 19.3 °C 16 °C 1016.9 hPa Calm     81% 0.0 mm 0 W/m2
22:29 19.2 °C 16.1 °C 1016.9 hPa Calm     82% 0.0 mm 0 W/m2
22:34 19.1 °C 16 °C 1016.9 hPa Calm     82% 0.0 mm 0 W/m2
22:39 19 °C 16 °C 1016.9 hPa Calm     83% 0.0 mm 0 W/m2
22:44 18.9 °C 15.9 °C 1016.9 hPa Calm     83% 0.0 mm 0 W/m2
22:49 18.8 °C 16 °C 1016.9 hPa Calm     84% 0.0 mm 0 W/m2
22:54 18.7 °C 15.9 °C 1016.9 hPa Calm     84% 0.0 mm 0 W/m2
22:59 18.7 °C 15.9 °C 1016.9 hPa Calm     84% 0.0 mm 0 W/m2
23:04 18.6 °C 15.8 °C 1016.9 hPa Calm     84% 0.0 mm 0 W/m2
23:09 18.6 °C 16 °C 1016.9 hPa Calm     85% 0.0 mm 0 W/m2
23:14 18.5 °C 15.9 °C 1016.9 hPa Calm     85% 0.0 mm 0 W/m2
23:19 18.4 °C 15.8 °C 1016.9 hPa Calm     85% 0.0 mm 0 W/m2
23:24 18.4 °C 16 °C 1016.9 hPa Calm     86% 0.0 mm 0 W/m2
23:29 18.4 °C 16 °C 1016.9 hPa Calm     86% 0.0 mm 0 W/m2
23:34 18.3 °C 15.9 °C 1016.9 hPa Calm     86% 0.0 mm 0 W/m2
23:39 18.3 °C 15.9 °C 1017.3 hPa Calm     86% 0.0 mm 0 W/m2
23:44 18.3 °C 16.1 °C 1016.9 hPa Calm     87% 0.0 mm 0 W/m2
23:49 18.3 °C 16.1 °C 1016.9 hPa Calm     87% 0.0 mm 0 W/m2
23:54 18.2 °C 16 °C 1017.3 hPa Calm     87% 0.0 mm 0 W/m2
23:59 18.2 °C 16 °C 1017.3 hPa Calm     87% 0.0 mm 0 W/m2
Juneau County Weather
Compliments of Weather Underground - 4 mb